1895 NOT_NAMED (1895311N09136)


IBTrACS version v04r00. Visit IBTrACS website for data access.
Please direct all questions to the IBTrACS Q and A forum

Storm track - Intensity - Wind Radii - Intensity Data - Source Data - All data

Summary Information

Storm ID 1895311N09136
Start Nov 6 16Z
End Nov 13 04Z
ATCF IDs
Track status Best track data.

Storm track plot

Map of storm track

Intensity plots

No Intensity information for this storm


Radial wind information

No radial wind information for this storm


Position and Intensity Table

BASIN ISO_TIME_________ NATURE LAT LON
degrees north degrees east
WP 1895-11-06 16:00:00 NR 8.60 135.60
WP 18:00:00 NR 8.68 135.54
WP 21:00:00 NR 8.81 135.46
WP 1895-11-07 00:00:00 NR 8.94 135.39
WP 03:00:00 NR 9.06 135.32
WP 04:00:00 NR 9.10 135.30
WP 06:00:00 NR 9.18 135.26
WP 09:00:00 NR 9.30 135.22
WP 12:00:00 NR 9.43 135.17
WP 15:00:00 NR 9.55 135.12
WP 16:00:00 NR 9.60 135.10
WP 18:00:00 NR 9.70 135.05
WP 21:00:00 NR 9.86 134.97
WP 1895-11-08 00:00:00 NR 10.02 134.89
WP 03:00:00 NR 10.16 134.82
WP 04:00:00 NR 10.20 134.80
WP 06:00:00 NR 10.26 134.77
WP 09:00:00 NR 10.32 134.74
WP 12:00:00 NR 10.38 134.72
WP 15:00:00 NR 10.47 134.71
WP 16:00:00 NR 10.50 134.70
WP 18:00:00 NR 10.60 134.68
WP 21:00:00 NR 10.78 134.65
WP 1895-11-09 00:00:00 NR 10.97 134.63
WP 03:00:00 NR 11.15 134.60
WP 04:00:00 NR 11.20 134.60
WP 06:00:00 NR 11.28 134.59
WP 09:00:00 NR 11.37 134.59
WP 12:00:00 NR 11.46 134.59
WP 15:00:00 NR 11.56 134.60
WP 16:00:00 NR 11.60 134.60
WP 18:00:00 NR 11.71 134.60
WP 21:00:00 NR 11.89 134.59
WP 1895-11-10 00:00:00 NR 12.07 134.59
WP 03:00:00 NR 12.25 134.60
WP 04:00:00 NR 12.30 134.60
WP 06:00:00 NR 12.38 134.61
WP 09:00:00 NR 12.47 134.62
WP 12:00:00 NR 12.56 134.65
WP 15:00:00 NR 12.66 134.68
WP 16:00:00 NR 12.70 134.70
WP 18:00:00 NR 12.80 134.74
WP 21:00:00 NR 12.97 134.80
WP 1895-11-11 00:00:00 NR 13.16 134.88
WP 03:00:00 NR 13.34 134.97
WP 04:00:00 NR 13.40 135.00
WP 06:00:00 NR 13.51 135.06
WP 09:00:00 NR 13.66 135.15
WP 12:00:00 NR 13.81 135.25
WP 15:00:00 NR 13.95 135.36
WP 16:00:00 NR 14.00 135.40
WP 18:00:00 NR 14.10 135.48
WP 21:00:00 NR 14.24 135.59
WP 1895-11-12 00:00:00 NR 14.39 135.72
WP 03:00:00 NR 14.55 135.85
WP 04:00:00 NR 14.60 135.90
WP 06:00:00 NR 14.72 135.99
WP 09:00:00 NR 14.90 136.14
WP 12:00:00 NR 15.08 136.29
WP 15:00:00 NR 15.25 136.45
WP 16:00:00 NR 15.30 136.50
WP 18:00:00 NR 15.39 136.61
WP 21:00:00 NR 15.50 136.78
WP 1895-11-13 00:00:00 NR 15.59 136.96
WP 03:00:00 NR 15.67 137.14
WP 04:00:00 NR 15.70 137.20

Source Information

Agency Information
USA
TOKYO
CMA
HKO
NEWDELHI
REUNION
BOM
NADI
WELLINGTON
DS824
TD9636 cons_worldwide_trop_cyclone_18710101-19891231-003:Line=1548
TD9635
NEUMANN
MLC

All available IBTrACS Data

SEASON BASIN SUBBASIN ISO_TIME_________ NATURE LAT LON DIST2LAND LANDFALL IFLAG USA SSHS TD9636 LAT TD9636 LON TD9636 STAGE STORM SPEED STORM DIR
Year degrees north degrees east km km 1 degrees north degrees east kts degrees
1895 WP MM 1895-11-06 16:00:00 NR 8.60 135.60 996 986 __________O___ -1 8.60 135.60 7 3 324
1895 WP MM 18:00:00 NR 8.68 135.54 986 986 __________P___ -1 8.68 135.54 7 3 327
1895 WP MM 21:00:00 NR 8.81 135.46 987 977 __________P___ -1 8.81 135.46 7 3 329
1895 WP MM 1895-11-07 00:00:00 NR 8.94 135.39 978 968 __________P___ -1 8.94 135.39 7 3 330
1895 WP MM 03:00:00 NR 9.06 135.32 970 970 __________P___ -1 9.06 135.32 7 3 332
1895 WP MM 04:00:00 NR 9.10 135.30 970 970 __________O___ -1 9.10 135.30 7 3 338
1895 WP MM 06:00:00 NR 9.18 135.26 972 961 __________P___ -1 9.18 135.26 7 3 339
1895 WP MM 09:00:00 NR 9.30 135.22 963 963 __________P___ -1 9.30 135.22 7 3 339
1895 WP MM 12:00:00 NR 9.43 135.17 965 956 __________P___ -1 9.43 135.17 7 3 339
1895 WP MM 15:00:00 NR 9.55 135.12 959 959 __________P___ -1 9.55 135.12 7 3 340
1895 WP MM 16:00:00 NR 9.60 135.10 959 959 __________O___ -1 9.60 135.10 7 3 334
1895 WP MM 18:00:00 NR 9.70 135.05 961 950 __________P___ -1 9.70 135.05 7 4 333
1895 WP MM 21:00:00 NR 9.86 134.97 956 945 __________P___ -1 9.86 134.97 7 4 333
1895 WP MM 1895-11-08 00:00:00 NR 10.02 134.89 948 940 __________P___ -1 10.02 134.89 7 3 334
1895 WP MM 03:00:00 NR 10.16 134.82 943 943 __________P___ -1 10.16 134.82 7 3 334
1895 WP MM 04:00:00 NR 10.20 134.80 943 943 __________O___ -1 10.20 134.80 7 2 339
1895 WP MM 06:00:00 NR 10.26 134.77 947 936 __________P___ -1 10.26 134.77 7 2 333
1895 WP MM 09:00:00 NR 10.32 134.74 936 936 __________P___ -1 10.32 134.74 7 1 339
1895 WP MM 12:00:00 NR 10.38 134.72 938 938 __________P___ -1 10.38 134.72 7 1 345
1895 WP MM 15:00:00 NR 10.47 134.71 941 941 __________P___ -1 10.47 134.71 7 2 0
1895 WP MM 16:00:00 NR 10.50 134.70 941 941 __________O___ -1 10.50 134.70 7 3 354
1895 WP MM 18:00:00 NR 10.60 134.68 943 943 __________P___ -1 10.60 134.68 7 3 352
1895 WP MM 21:00:00 NR 10.78 134.65 947 937 __________P___ -1 10.78 134.65 7 4 351
1895 WP MM 1895-11-09 00:00:00 NR 10.97 134.63 942 942 __________P___ -1 10.97 134.63 7 4 354
1895 WP MM 03:00:00 NR 11.15 134.60 944 946 __________P___ -1 11.15 134.60 7 4 0
1895 WP MM 04:00:00 NR 11.20 134.60 946 946 __________O___ -1 11.20 134.60 7 3 350
1895 WP MM 06:00:00 NR 11.28 134.59 949 949 __________P___ -1 11.28 134.59 7 2 352
1895 WP MM 09:00:00 NR 11.37 134.59 952 952 __________P___ -1 11.37 134.59 7 2 0
1895 WP MM 12:00:00 NR 11.46 134.59 954 954 __________P___ -1 11.46 134.59 7 2 2
1895 WP MM 15:00:00 NR 11.56 134.60 957 957 __________P___ -1 11.56 134.60 7 2 9
1895 WP MM 16:00:00 NR 11.60 134.60 957 957 __________O___ -1 11.60 134.60 7 3 354
1895 WP MM 18:00:00 NR 11.71 134.60 960 960 __________P___ -1 11.71 134.60 7 3 357
1895 WP MM 21:00:00 NR 11.89 134.59 964 964 __________P___ -1 11.89 134.59 7 4 358
1895 WP MM 1895-11-10 00:00:00 NR 12.07 134.59 967 967 __________P___ -1 12.07 134.59 7 4 1
1895 WP MM 03:00:00 NR 12.25 134.60 968 969 __________P___ -1 12.25 134.60 7 3 6
1895 WP MM 04:00:00 NR 12.30 134.60 969 969 __________O___ -1 12.30 134.60 7 3 0
1895 WP MM 06:00:00 NR 12.38 134.61 971 971 __________P___ -1 12.38 134.61 7 2 8
1895 WP MM 09:00:00 NR 12.47 134.62 973 973 __________P___ -1 12.47 134.62 7 2 9
1895 WP MM 12:00:00 NR 12.56 134.65 975 975 __________P___ -1 12.56 134.65 7 2 17
1895 WP MM 15:00:00 NR 12.66 134.68 987 987 __________P___ -1 12.66 134.68 7 2 23
1895 WP MM 16:00:00 NR 12.70 134.70 987 987 __________O___ -1 12.70 134.70 7 3 22
1895 WP MM 18:00:00 NR 12.80 134.74 989 989 __________P___ -1 12.80 134.74 7 4 19
1895 WP MM 21:00:00 NR 12.97 134.80 1004 1004 __________P___ -1 12.97 134.80 7 4 22
1895 WP MM 1895-11-11 00:00:00 NR 13.16 134.88 1020 1020 __________P___ -1 13.16 134.88 7 4 24
1895 WP MM 03:00:00 NR 13.34 134.97 1033 1035 __________P___ -1 13.34 134.97 7 4 26
1895 WP MM 04:00:00 NR 13.40 135.00 1035 1035 __________O___ -1 13.40 135.00 7 4 28
1895 WP MM 06:00:00 NR 13.51 135.06 1049 1049 __________P___ -1 13.51 135.06 7 4 30
1895 WP MM 09:00:00 NR 13.66 135.15 1065 1065 __________P___ -1 13.66 135.15 7 4 32
1895 WP MM 12:00:00 NR 13.81 135.25 1077 1077 __________P___ -1 13.81 135.25 7 4 35
1895 WP MM 15:00:00 NR 13.95 135.36 1091 1091 __________P___ -1 13.95 135.36 7 4 36
1895 WP MM 16:00:00 NR 14.00 135.40 1091 1091 __________O___ -1 14.00 135.40 7 4 38
1895 WP MM 18:00:00 NR 14.10 135.48 1103 1103 __________P___ -1 14.10 135.48 7 4 38
1895 WP MM 21:00:00 NR 14.24 135.59 1116 1118 __________P___ -1 14.24 135.59 7 4 39
1895 WP MM 1895-11-12 00:00:00 NR 14.39 135.72 1131 1131 __________P___ -1 14.39 135.72 7 4 40
1895 WP MM 03:00:00 NR 14.55 135.85 1154 1157 __________P___ -1 14.55 135.85 7 4 40
1895 WP MM 04:00:00 NR 14.60 135.90 1157 1157 __________O___ -1 14.60 135.90 7 4 37
1895 WP MM 06:00:00 NR 14.72 135.99 1169 1169 __________P___ -1 14.72 135.99 7 5 37
1895 WP MM 09:00:00 NR 14.90 136.14 1185 1185 __________P___ -1 14.90 136.14 7 5 38
1895 WP MM 12:00:00 NR 15.08 136.29 1211 1211 __________P___ -1 15.08 136.29 7 5 41
1895 WP MM 15:00:00 NR 15.25 136.45 1227 1238 __________P___ -1 15.25 136.45 7 4 44
1895 WP MM 16:00:00 NR 15.30 136.50 1238 1238 __________O___ -1 15.30 136.50 7 4 49
1895 WP MM 18:00:00 NR 15.39 136.61 1251 1251 __________P___ -1 15.39 136.61 7 4 54
1895 WP MM 21:00:00 NR 15.50 136.78 1275 1275 __________P___ -1 15.50 136.78 7 4 59
1895 WP MM 1895-11-13 00:00:00 NR 15.59 136.96 1298 1298 __________P___ -1 15.59 136.96 7 4 63
1895 WP MM 03:00:00 NR 15.67 137.14 1312 1312 __________P___ -1 15.67 137.14 7 4 65
1895 WP MM 04:00:00 NR 15.70 137.20 1322 __________O___ -1 15.70 137.20 7 4 62